^^
Meteo Knjazevac Station Historical Data
Daily Summary for December 15, 2021 Units:  Both    English   Metric
Daily Weekly Monthly Yearly Custom
  High: Low: Average:
Temperature: 37.9 °F /  3.3 °C 31.1 °F /  -0.5 °C 34.3 °F /  1.3 °C
Dew Point: 35 °F /  1.7 °C 29.5 °F /  -1.4 °C 32.2 °F /  0.1 °C
Humidity: 94% 88% 92%
Wind Speed: 5mph /  8km/h - 2.1mph /  3.4km/h
Wind Gust: 9mph /  14.5km/h - -
Wind- - SSW
Pressure: 30.32 in /  1026.6 hPa 30.24 in /  1023.9 hPa -
Precipitation: 0.00 in /  0 mm    
Historical Graphs
 
 
Tabular Data for December 15, 2021
Time Temperature Dew Point Pressure Wind Wind Speed Wind Gust Humidity Rainfall Rate (Hourly) solar Conditions
00:00 34.2 °F /  1.2 °C 32.3 °F /  0.2 °C 30.24in /  1023.9hPa WSW 3mph /  4.8km/h 6mph /  9.7km/h 93% 0.00in /  0mm 0 W/m2
00:10 34.2 °F /  1.2 °C 32.6 °F /  0.3 °C 30.24in /  1023.9hPa SW 2mph /  3.2km/h 5mph /  8km/h 94% 0.00in /  0mm 0 W/m2
00:20 34.2 °F /  1.2 °C 32.6 °F /  0.3 °C 30.24in /  1023.9hPa SW 2mph /  3.2km/h 5mph /  8km/h 94% 0.00in /  0mm 0 W/m2
00:30 34 °F /  1.1 °C 32.2 °F /  0.1 °C 30.24in /  1023.9hPa SW 2mph /  3.2km/h 6mph /  9.7km/h 93% 0.00in /  0mm 0 W/m2
00:40 34 °F /  1.1 °C 32.2 °F /  0.1 °C 30.24in /  1023.9hPa Calm   4mph /  6.4km/h 93% 0.00in /  0mm 0 W/m2
00:50 34 °F /  1.1 °C 32.2 °F /  0.1 °C 30.24in /  1023.9hPa WSW 2mph /  3.2km/h 5mph /  8km/h 93% 0.00in /  0mm 0 W/m2
01:00 33.8 °F /  1 °C 32 °F /  0 °C 30.24in /  1023.9hPa SW 3mph /  4.8km/h 6mph /  9.7km/h 93% 0.00in /  0mm 0 W/m2
01:10 33.8 °F /  1 °C 31.5 °F /  -0.3 °C 30.24in /  1023.9hPa SW 5mph /  8km/h 6mph /  9.7km/h 91% 0.00in /  0mm 0 W/m2
01:20 33.7 °F /  0.9 °C 31.3 °F /  -0.4 °C 30.24in /  1023.9hPa SW 3mph /  4.8km/h 6mph /  9.7km/h 91% 0.00in /  0mm 0 W/m2
01:30 33.6 °F /  0.9 °C 31.3 °F /  -0.4 °C 30.24in /  1023.9hPa SW 3mph /  4.8km/h 7mph /  11.3km/h 91% 0.00in /  0mm 0 W/m2
01:40 33.6 °F /  0.9 °C 31.3 °F /  -0.4 °C 30.24in /  1023.9hPa SW 3mph /  4.8km/h 6mph /  9.7km/h 91% 0.00in /  0mm 0 W/m2
01:50 33.3 °F /  0.7 °C 30.9 °F /  -0.6 °C 30.24in /  1023.9hPa WSW 5mph /  8km/h 7mph /  11.3km/h 91% 0.00in /  0mm 0 W/m2
02:00 32.9 °F /  0.5 °C 30.6 °F /  -0.8 °C 30.24in /  1023.9hPa WSW 3mph /  4.8km/h 6mph /  9.7km/h 91% 0.00in /  0mm 0 W/m2
02:10 32.7 °F /  0.4 °C 30.4 °F /  -0.9 °C 30.24in /  1023.9hPa WSW 2mph /  3.2km/h 5mph /  8km/h 91% 0.00in /  0mm 0 W/m2
02:20 32.4 °F /  0.2 °C 30 °F /  -1.1 °C 30.24in /  1023.9hPa WSW 1mph /  1.6km/h 5mph /  8km/h 91% 0.00in /  0mm 0 W/m2
02:30 32.4 °F /  0.2 °C 30 °F /  -1.1 °C 30.24in /  1023.9hPa WSW 2mph /  3.2km/h 7mph /  11.3km/h 91% 0.00in /  0mm 0 W/m2
02:40 32 °F /  0 °C 29.7 °F /  -1.3 °C 30.24in /  1023.9hPa WSW 2mph /  3.2km/h 4mph /  6.4km/h 91% 0.00in /  0mm 0 W/m2
02:50 31.8 °F /  -0.1 °C 30 °F /  -1.1 °C 30.24in /  1023.9hPa WSW 2mph /  3.2km/h 3mph /  4.8km/h 93% 0.00in /  0mm 0 W/m2
03:00 31.6 °F /  -0.2 °C 29.8 °F /  -1.2 °C 30.24in /  1023.9hPa West 2mph /  3.2km/h 5mph /  8km/h 93% 0.00in /  0mm 0 W/m2
03:10 31.5 °F /  -0.3 °C 29.7 °F /  -1.3 °C 30.24in /  1023.9hPa WSW 2mph /  3.2km/h 5mph /  8km/h 93% 0.00in /  0mm 0 W/m2
03:20 31.3 °F /  -0.4 °C 29.5 °F /  -1.4 °C 30.24in /  1023.9hPa SW 3mph /  4.8km/h 6mph /  9.7km/h 93% 0.00in /  0mm 0 W/m2
03:30 31.3 °F /  -0.4 °C 29.5 °F /  -1.4 °C 30.24in /  1023.9hPa SW 3mph /  4.8km/h 7mph /  11.3km/h 93% 0.00in /  0mm 0 W/m2
03:40 31.1 °F /  -0.5 °C 29.6 °F /  -1.3 °C 30.24in /  1023.9hPa WSW 2mph /  3.2km/h 7mph /  11.3km/h 94% 0.00in /  0mm 0 W/m2
03:50 31.1 °F /  -0.5 °C 29.6 °F /  -1.3 °C 30.24in /  1023.9hPa SSW 2mph /  3.2km/h 4mph /  6.4km/h 94% 0.00in /  0mm 0 W/m2
04:00 31.3 °F /  -0.4 °C 29.8 °F /  -1.2 °C 30.25in /  1024.3hPa NW 2mph /  3.2km/h 4mph /  6.4km/h 94% 0.00in /  0mm 0 W/m2
04:10 31.3 °F /  -0.4 °C 29.8 °F /  -1.2 °C 30.24in /  1023.9hPa SW 3mph /  4.8km/h 6mph /  9.7km/h 94% 0.00in /  0mm 0 W/m2
04:20 31.5 °F /  -0.3 °C 29.9 °F /  -1.2 °C 30.24in /  1023.9hPa WSW 3mph /  4.8km/h 7mph /  11.3km/h 94% 0.00in /  0mm 0 W/m2
04:30 31.6 °F /  -0.2 °C 30.1 °F /  -1.1 °C 30.24in /  1023.9hPa WSW 3mph /  4.8km/h 5mph /  8km/h 94% 0.00in /  0mm 0 W/m2
04:40 31.6 °F /  -0.2 °C 30.1 °F /  -1.1 °C 30.24in /  1023.9hPa WSW 2mph /  3.2km/h 5mph /  8km/h 94% 0.00in /  0mm 0 W/m2
04:50 31.6 °F /  -0.2 °C 30.1 °F /  -1.1 °C 30.24in /  1023.9hPa SW 1mph /  1.6km/h 3mph /  4.8km/h 94% 0.00in /  0mm 0 W/m2
05:00 31.8 °F /  -0.1 °C 30.3 °F /  -0.9 °C 30.25in /  1024.3hPa Calm   2mph /  3.2km/h 94% 0.00in /  0mm 0 W/m2
05:10 31.8 °F /  -0.1 °C 30.3 °F /  -0.9 °C 30.25in /  1024.3hPa West 1mph /  1.6km/h 2mph /  3.2km/h 94% 0.00in /  0mm 0 W/m2
05:20 32 °F /  0 °C 30.5 °F /  -0.8 °C 30.25in /  1024.3hPa WSW 1mph /  1.6km/h 3mph /  4.8km/h 94% 0.00in /  0mm 0 W/m2
05:30 32 °F /  0 °C 30.5 °F /  -0.8 °C 30.25in /  1024.3hPa South 1mph /  1.6km/h 3mph /  4.8km/h 94% 0.00in /  0mm 0 W/m2
05:40 32.2 °F /  0.1 °C 30.6 °F /  -0.8 °C 30.25in /  1024.3hPa WSW 3mph /  4.8km/h 6mph /  9.7km/h 94% 0.00in /  0mm 0 W/m2
05:50 32.2 °F /  0.1 °C 30.6 °F /  -0.8 °C 30.25in /  1024.3hPa WSW 3mph /  4.8km/h 6mph /  9.7km/h 94% 0.00in /  0mm 0 W/m2
06:00 32.4 °F /  0.2 °C 30.8 °F /  -0.7 °C 30.25in /  1024.3hPa WSW 2mph /  3.2km/h 5mph /  8km/h 94% 0.00in /  0mm 0 W/m2
06:10 32.4 °F /  0.2 °C 30.8 °F /  -0.7 °C 30.25in /  1024.3hPa WSW 2mph /  3.2km/h 3mph /  4.8km/h 94% 0.00in /  0mm 0 W/m2
06:20 32.4 °F /  0.2 °C 30.9 °F /  -0.6 °C 30.25in /  1024.3hPa SW 1mph /  1.6km/h 5mph /  8km/h 94% 0.00in /  0mm 0 W/m2
06:30 32.5 °F /  0.3 °C 31 °F /  -0.6 °C 30.25in /  1024.3hPa WSW 1mph /  1.6km/h 3mph /  4.8km/h 94% 0.00in /  0mm 0 W/m2
06:40 32.5 °F /  0.3 °C 31 °F /  -0.6 °C 30.25in /  1024.3hPa Calm   3mph /  4.8km/h 94% 0.00in /  0mm 0 W/m2
06:50 32.7 °F /  0.4 °C 31.2 °F /  -0.4 °C 30.25in /  1024.3hPa Calm   2mph /  3.2km/h 94% 0.00in /  0mm 0 W/m2
07:00 32.7 °F /  0.4 °C 31.2 °F /  -0.4 °C 30.26in /  1024.6hPa SW 2mph /  3.2km/h 4mph /  6.4km/h 94% 0.00in /  0mm 1 W/m2
07:10 32.9 °F /  0.5 °C 31.3 °F /  -0.4 °C 30.26in /  1024.6hPa WSW 1mph /  1.6km/h 3mph /  4.8km/h 94% 0.00in /  0mm 2 W/m2
07:20 32.9 °F /  0.5 °C 31.4 °F /  -0.3 °C 30.26in /  1024.6hPa NE 2mph /  3.2km/h 3mph /  4.8km/h 94% 0.00in /  0mm 3 W/m2
07:30 32.9 °F /  0.5 °C 31.4 °F /  -0.3 °C 30.26in /  1024.6hPa East 1mph /  1.6km/h 3mph /  4.8km/h 94% 0.00in /  0mm 5 W/m2
07:40 33.1 °F /  0.6 °C 31.5 °F /  -0.3 °C 30.26in /  1024.6hPa South 2mph /  3.2km/h 3mph /  4.8km/h 94% 0.00in /  0mm 6 W/m2
07:50 33.1 °F /  0.6 °C 31.3 °F /  -0.4 °C 30.26in /  1024.6hPa East 1mph /  1.6km/h 6mph /  9.7km/h 93% 0.00in /  0mm 7 W/m2
08:00 33.3 °F /  0.7 °C 31.5 °F /  -0.3 °C 30.27in /  1024.9hPa East 2mph /  3.2km/h 6mph /  9.7km/h 93% 0.00in /  0mm 8 W/m2
08:10 33.3 °F /  0.7 °C 31.5 °F /  -0.3 °C 30.27in /  1024.9hPa Calm   3mph /  4.8km/h 93% 0.00in /  0mm 10 W/m2
08:20 33.4 °F /  0.8 °C 31.9 °F /  -0.1 °C 30.27in /  1024.9hPa ESE 2mph /  3.2km/h 6mph /  9.7km/h 94% 0.00in /  0mm 11 W/m2
08:30 33.4 °F /  0.8 °C 31.6 °F /  -0.2 °C 30.28in /  1025.3hPa ESE 3mph /  4.8km/h 6mph /  9.7km/h 93% 0.00in /  0mm 13 W/m2
08:40 33.6 °F /  0.9 °C 31.8 °F /  -0.1 °C 30.28in /  1025.3hPa SE 1mph /  1.6km/h 5mph /  8km/h 93% 0.00in /  0mm 15 W/m2
08:50 33.6 °F /  0.9 °C 31.8 °F /  -0.1 °C 30.28in /  1025.3hPa WNW 1mph /  1.6km/h 2mph /  3.2km/h 93% 0.00in /  0mm 18 W/m2
09:00 33.6 °F /  0.9 °C 31.8 °F /  -0.1 °C 30.28in /  1025.3hPa Calm   4mph /  6.4km/h 93% 0.00in /  0mm 21 W/m2
09:10 33.8 °F /  1 °C 32 °F /  0 °C 30.28in /  1025.3hPa SSE 1mph /  1.6km/h 6mph /  9.7km/h 93% 0.00in /  0mm 23 W/m2
09:20 33.8 °F /  1 °C 32 °F /  0 °C 30.28in /  1025.3hPa WSW 2mph /  3.2km/h 5mph /  8km/h 93% 0.00in /  0mm 31 W/m2
09:30 33.8 °F /  1 °C 32 °F /  0 °C 30.28in /  1025.3hPa Calm   4mph /  6.4km/h 93% 0.00in /  0mm 36 W/m2
09:40 34 °F /  1.1 °C 32.2 °F /  0.1 °C 30.28in /  1025.3hPa Calm   2mph /  3.2km/h 93% 0.00in /  0mm 36 W/m2
09:50 34 °F /  1.1 °C 32.2 °F /  0.1 °C 30.28in /  1025.3hPa Calm   2mph /  3.2km/h 93% 0.00in /  0mm 41 W/m2
10:00 34.2 °F /  1.2 °C 32.3 °F /  0.2 °C 30.28in /  1025.3hPa Calm   3mph /  4.8km/h 93% 0.00in /  0mm 43 W/m2
10:10 34.2 °F /  1.2 °C 32.3 °F /  0.2 °C 30.28in /  1025.3hPa East 2mph /  3.2km/h 5mph /  8km/h 93% 0.00in /  0mm 42 W/m2
10:20 34.5 °F /  1.4 °C 32.7 °F /  0.4 °C 30.28in /  1025.3hPa SE 1mph /  1.6km/h 6mph /  9.7km/h 93% 0.00in /  0mm 55 W/m2
10:30 34.5 °F /  1.4 °C 32.7 °F /  0.4 °C 30.28in /  1025.3hPa SSW 1mph /  1.6km/h 3mph /  4.8km/h 93% 0.00in /  0mm 55 W/m2
10:40 34.7 °F /  1.5 °C 32.9 °F /  0.5 °C 30.28in /  1025.3hPa South 1mph /  1.6km/h 3mph /  4.8km/h 93% 0.00in /  0mm 63 W/m2
10:50 34.9 °F /  1.6 °C 33.1 °F /  0.6 °C 30.27in /  1024.9hPa SSW 2mph /  3.2km/h 4mph /  6.4km/h 93% 0.00in /  0mm 73 W/m2
11:00 35.1 °F /  1.7 °C 32.7 °F /  0.4 °C 30.27in /  1024.9hPa SW 1mph /  1.6km/h 4mph /  6.4km/h 91% 0.00in /  0mm 78 W/m2
11:10 35.2 °F /  1.8 °C 32.9 °F /  0.5 °C 30.27in /  1024.9hPa WSW 1mph /  1.6km/h 3mph /  4.8km/h 91% 0.00in /  0mm 78 W/m2
11:20 35.4 °F /  1.9 °C 32.8 °F /  0.4 °C 30.27in /  1024.9hPa Calm   2mph /  3.2km/h 90% 0.00in /  0mm 83 W/m2
11:30 35.6 °F /  2 °C 33 °F /  0.6 °C 30.27in /  1024.9hPa ENE 1mph /  1.6km/h 4mph /  6.4km/h 90% 0.00in /  0mm 86 W/m2
11:40 35.8 °F /  2.1 °C 33.4 °F /  0.8 °C 30.27in /  1024.9hPa East 1mph /  1.6km/h 4mph /  6.4km/h 91% 0.00in /  0mm 86 W/m2
11:50 36 °F /  2.2 °C 33.6 °F /  0.9 °C 30.27in /  1024.9hPa SE 3mph /  4.8km/h 6mph /  9.7km/h 91% 0.00in /  0mm 86 W/m2
12:00 36 °F /  2.2 °C 33.3 °F /  0.7 °C 30.27in /  1024.9hPa ESE 1mph /  1.6km/h 7mph /  11.3km/h 90% 0.00in /  0mm 92 W/m2
12:10 36.1 °F /  2.3 °C 33.5 °F /  0.8 °C 30.27in /  1024.9hPa ESE 1mph /  1.6km/h 7mph /  11.3km/h 90% 0.00in /  0mm 91 W/m2
12:20 36.3 °F /  2.4 °C 33.7 °F /  0.9 °C 30.27in /  1024.9hPa East 2mph /  3.2km/h 6mph /  9.7km/h 90% 0.00in /  0mm 87 W/m2
12:30 36.5 °F /  2.5 °C 33.8 °F /  1 °C 30.27in /  1024.9hPa ESE 2mph /  3.2km/h 7mph /  11.3km/h 90% 0.00in /  0mm 89 W/m2
12:40 36.5 °F /  2.5 °C 33.8 °F /  1 °C 30.27in /  1024.9hPa ESE 3mph /  4.8km/h 7mph /  11.3km/h 90% 0.00in /  0mm 90 W/m2
12:50 36.7 °F /  2.6 °C 34 °F /  1.1 °C 30.27in /  1024.9hPa SE 3mph /  4.8km/h 7mph /  11.3km/h 90% 0.00in /  0mm 98 W/m2
13:00 36.9 °F /  2.7 °C 33.9 °F /  1.1 °C 30.27in /  1024.9hPa SE 3mph /  4.8km/h 7mph /  11.3km/h 89% 0.00in /  0mm 109 W/m2
13:10 36.9 °F /  2.7 °C 33.9 °F /  1.1 °C 30.27in /  1024.9hPa SE 3mph /  4.8km/h 8mph /  12.9km/h 89% 0.00in /  0mm 118 W/m2
13:20 37 °F /  2.8 °C 34.1 °F /  1.2 °C 30.27in /  1024.9hPa ESE 2mph /  3.2km/h 8mph /  12.9km/h 89% 0.00in /  0mm 119 W/m2
13:30 37.2 °F /  2.9 °C 34.3 °F /  1.3 °C 30.26in /  1024.6hPa SE 5mph /  8km/h 7mph /  11.3km/h 89% 0.00in /  0mm 117 W/m2
13:40 37.4 °F /  3 °C 34.5 °F /  1.4 °C 30.26in /  1024.6hPa ESE 3mph /  4.8km/h 7mph /  11.3km/h 89% 0.00in /  0mm 104 W/m2
13:50 37.4 °F /  3 °C 34.5 °F /  1.4 °C 30.26in /  1024.6hPa SE 3mph /  4.8km/h 7mph /  11.3km/h 89% 0.00in /  0mm 98 W/m2
14:00 37.6 °F /  3.1 °C 34.6 °F /  1.4 °C 30.26in /  1024.6hPa SSW 3mph /  4.8km/h 6mph /  9.7km/h 89% 0.00in /  0mm 96 W/m2
14:10 37.8 °F /  3.2 °C 34.8 °F /  1.6 °C 30.26in /  1024.6hPa SSW 2mph /  3.2km/h 6mph /  9.7km/h 89% 0.00in /  0mm 77 W/m2
14:20 37.4 °F /  3 °C 34.2 °F /  1.2 °C 30.26in /  1024.6hPa SW 3mph /  4.8km/h 8mph /  12.9km/h 88% 0.00in /  0mm 117 W/m2
14:30 37.6 °F /  3.1 °C 34.6 °F /  1.4 °C 30.26in /  1024.6hPa SW 5mph /  8km/h 7mph /  11.3km/h 89% 0.00in /  0mm 116 W/m2
14:40 37.9 °F /  3.3 °C 35 °F /  1.7 °C 30.26in /  1024.6hPa SW 3mph /  4.8km/h 7mph /  11.3km/h 89% 0.00in /  0mm 97 W/m2
14:50 37.9 °F /  3.3 °C 34.7 °F /  1.5 °C 30.26in /  1024.6hPa SSW 3mph /  4.8km/h 7mph /  11.3km/h 88% 0.00in /  0mm 55 W/m2
15:00 37.8 °F /  3.2 °C 34.5 °F /  1.4 °C 30.26in /  1024.6hPa SSW 2mph /  3.2km/h 8mph /  12.9km/h 88% 0.00in /  0mm 32 W/m2
15:10 37.6 °F /  3.1 °C 34.3 °F /  1.3 °C 30.27in /  1024.9hPa South 2mph /  3.2km/h 6mph /  9.7km/h 88% 0.00in /  0mm 25 W/m2
15:20 37.4 °F /  3 °C 34.5 °F /  1.4 °C 30.27in /  1024.9hPa SSW 3mph /  4.8km/h 5mph /  8km/h 89% 0.00in /  0mm 16 W/m2
15:30 37.4 °F /  3 °C 34.5 °F /  1.4 °C 30.27in /  1024.9hPa SSW 2mph /  3.2km/h 5mph /  8km/h 89% 0.00in /  0mm 8 W/m2
15:40 37.2 °F /  2.9 °C 34.3 °F /  1.3 °C 30.27in /  1024.9hPa SW 1mph /  1.6km/h 4mph /  6.4km/h 89% 0.00in /  0mm 3 W/m2
15:50 37 °F /  2.8 °C 34.1 °F /  1.2 °C 30.28in /  1025.3hPa SSW 2mph /  3.2km/h 4mph /  6.4km/h 89% 0.00in /  0mm 2 W/m2
16:00 36.9 °F /  2.7 °C 34.2 °F /  1.2 °C 30.28in /  1025.3hPa SSW 1mph /  1.6km/h 4mph /  6.4km/h 90% 0.00in /  0mm 0 W/m2
16:10 36.7 °F /  2.6 °C 34 °F /  1.1 °C 30.28in /  1025.3hPa SW 1mph /  1.6km/h 5mph /  8km/h 90% 0.00in /  0mm 0 W/m2
16:20 36.5 °F /  2.5 °C 33.8 °F /  1 °C 30.28in /  1025.3hPa SW 3mph /  4.8km/h 6mph /  9.7km/h 90% 0.00in /  0mm 0 W/m2
16:30 36.3 °F /  2.4 °C 33.7 °F /  0.9 °C 30.28in /  1025.3hPa SW 3mph /  4.8km/h 7mph /  11.3km/h 90% 0.00in /  0mm 0 W/m2
16:40 36 °F /  2.2 °C 33.3 °F /  0.7 °C 30.28in /  1025.3hPa SW 3mph /  4.8km/h 7mph /  11.3km/h 90% 0.00in /  0mm 0 W/m2
16:50 36 °F /  2.2 °C 33.6 °F /  0.9 °C 30.29in /  1025.6hPa SSW 2mph /  3.2km/h 6mph /  9.7km/h 91% 0.00in /  0mm 0 W/m2
17:00 35.8 °F /  2.1 °C 33.4 °F /  0.8 °C 30.28in /  1025.3hPa SW 3mph /  4.8km/h 7mph /  11.3km/h 91% 0.00in /  0mm 0 W/m2
17:10 35.6 °F /  2 °C 33.2 °F /  0.7 °C 30.29in /  1025.6hPa SW 3mph /  4.8km/h 5mph /  8km/h 91% 0.00in /  0mm 0 W/m2
17:20 35.4 °F /  1.9 °C 33.1 °F /  0.6 °C 30.29in /  1025.6hPa SW 2mph /  3.2km/h 5mph /  8km/h 91% 0.00in /  0mm 0 W/m2
17:30 35.4 °F /  1.9 °C 33.1 °F /  0.6 °C 30.29in /  1025.6hPa SW 2mph /  3.2km/h 5mph /  8km/h 91% 0.00in /  0mm 0 W/m2
17:40 35.2 °F /  1.8 °C 32.9 °F /  0.5 °C 30.29in /  1025.6hPa SSW 3mph /  4.8km/h 6mph /  9.7km/h 91% 0.00in /  0mm 0 W/m2
17:50 35.2 °F /  1.8 °C 32.9 °F /  0.5 °C 30.29in /  1025.6hPa SW 2mph /  3.2km/h 6mph /  9.7km/h 91% 0.00in /  0mm 0 W/m2
18:00 35.1 °F /  1.7 °C 32.7 °F /  0.4 °C 30.29in /  1025.6hPa SW 3mph /  4.8km/h 7mph /  11.3km/h 91% 0.00in /  0mm 0 W/m2
18:10 35.2 °F /  1.8 °C 32.9 °F /  0.5 °C 30.29in /  1025.6hPa SW 5mph /  8km/h 8mph /  12.9km/h 91% 0.00in /  0mm 0 W/m2
18:20 35.1 °F /  1.7 °C 32.7 °F /  0.4 °C 30.29in /  1025.6hPa SW 5mph /  8km/h 9mph /  14.5km/h 91% 0.00in /  0mm 0 W/m2
18:30 34.9 °F /  1.6 °C 33.1 °F /  0.6 °C 30.29in /  1025.6hPa SW 5mph /  8km/h 7mph /  11.3km/h 93% 0.00in /  0mm 0 W/m2
18:50 34.9 °F /  1.6 °C 33.1 °F /  0.6 °C 30.30in /  1026hPa SW 3mph /  4.8km/h 8mph /  12.9km/h 93% 0.00in /  0mm 0 W/m2
19:00 34.7 °F /  1.5 °C 32.9 °F /  0.5 °C 30.30in /  1026hPa SW 5mph /  8km/h 7mph /  11.3km/h 93% 0.00in /  0mm 0 W/m2
19:10 34.7 °F /  1.5 °C 32.9 °F /  0.5 °C 30.30in /  1026hPa SW 5mph /  8km/h 7mph /  11.3km/h 93% 0.00in /  0mm 0 W/m2
19:20 34.7 °F /  1.5 °C 32.9 °F /  0.5 °C 30.30in /  1026hPa SW 2mph /  3.2km/h 7mph /  11.3km/h 93% 0.00in /  0mm 0 W/m2
19:30 34.7 °F /  1.5 °C 32.9 °F /  0.5 °C 30.30in /  1026hPa SSW 2mph /  3.2km/h 6mph /  9.7km/h 93% 0.00in /  0mm 0 W/m2
19:40 34.5 °F /  1.4 °C 32.7 °F /  0.4 °C 30.30in /  1026hPa SSW 2mph /  3.2km/h 5mph /  8km/h 93% 0.00in /  0mm 0 W/m2
19:50 34.5 °F /  1.4 °C 32.7 °F /  0.4 °C 30.30in /  1026hPa SW 2mph /  3.2km/h 7mph /  11.3km/h 93% 0.00in /  0mm 0 W/m2
20:00 34.5 °F /  1.4 °C 32.7 °F /  0.4 °C 30.30in /  1026hPa SSW 2mph /  3.2km/h 5mph /  8km/h 93% 0.00in /  0mm 0 W/m2
20:10 34.3 °F /  1.3 °C 32.5 °F /  0.3 °C 30.30in /  1026hPa SW 2mph /  3.2km/h 6mph /  9.7km/h 93% 0.00in /  0mm 0 W/m2
20:20 34.3 °F /  1.3 °C 32.5 °F /  0.3 °C 30.30in /  1026hPa SW 1mph /  1.6km/h 5mph /  8km/h 93% 0.00in /  0mm 0 W/m2
20:30 34.2 °F /  1.2 °C 32.3 °F /  0.2 °C 30.30in /  1026hPa SSW 2mph /  3.2km/h 6mph /  9.7km/h 93% 0.00in /  0mm 0 W/m2
20:50 34 °F /  1.1 °C 32.2 °F /  0.1 °C 30.31in /  1026.3hPa South 3mph /  4.8km/h 8mph /  12.9km/h 93% 0.00in /  0mm 0 W/m2
21:00 34 °F /  1.1 °C 32.2 °F /  0.1 °C 30.31in /  1026.3hPa South 3mph /  4.8km/h 7mph /  11.3km/h 93% 0.00in /  0mm 0 W/m2
21:10 34 °F /  1.1 °C 32.2 °F /  0.1 °C 30.31in /  1026.3hPa SSW 2mph /  3.2km/h 7mph /  11.3km/h 93% 0.00in /  0mm 0 W/m2
21:20 34 °F /  1.1 °C 32.2 °F /  0.1 °C 30.32in /  1026.6hPa SSW 2mph /  3.2km/h 6mph /  9.7km/h 93% 0.00in /  0mm 0 W/m2
21:30 34 °F /  1.1 °C 32.2 °F /  0.1 °C 30.32in /  1026.6hPa South 3mph /  4.8km/h 6mph /  9.7km/h 93% 0.00in /  0mm 0 W/m2
21:40 34 °F /  1.1 °C 32.2 °F /  0.1 °C 30.32in /  1026.6hPa South 3mph /  4.8km/h 7mph /  11.3km/h 93% 0.00in /  0mm 0 W/m2
21:50 34 °F /  1.1 °C 31.6 °F /  -0.2 °C 30.32in /  1026.6hPa South 2mph /  3.2km/h 7mph /  11.3km/h 91% 0.00in /  0mm 0 W/m2
22:00 34 °F /  1.1 °C 31.6 °F /  -0.2 °C 30.32in /  1026.6hPa SSW 2mph /  3.2km/h 5mph /  8km/h 91% 0.00in /  0mm 0 W/m2
22:10 34 °F /  1.1 °C 31.6 °F /  -0.2 °C 30.32in /  1026.6hPa SSE 2mph /  3.2km/h 5mph /  8km/h 91% 0.00in /  0mm 0 W/m2
22:20 33.8 °F /  1 °C 31.5 °F /  -0.3 °C 30.32in /  1026.6hPa South 3mph /  4.8km/h 5mph /  8km/h 91% 0.00in /  0mm 0 W/m2
22:30 33.8 °F /  1 °C 31.5 °F /  -0.3 °C 30.32in /  1026.6hPa South 2mph /  3.2km/h 7mph /  11.3km/h 91% 0.00in /  0mm 0 W/m2
22:40 33.8 °F /  1 °C 31.2 °F /  -0.4 °C 30.32in /  1026.6hPa South 2mph /  3.2km/h 6mph /  9.7km/h 90% 0.00in /  0mm 0 W/m2
22:50 33.8 °F /  1 °C 31.2 °F /  -0.4 °C 30.32in /  1026.6hPa South 2mph /  3.2km/h 5mph /  8km/h 90% 0.00in /  0mm 0 W/m2
23:00 34 °F /  1.1 °C 31.3 °F /  -0.4 °C 30.32in /  1026.6hPa SSE 1mph /  1.6km/h 5mph /  8km/h 90% 0.00in /  0mm 0 W/m2
23:10 34 °F /  1.1 °C 31.4 °F /  -0.3 °C 30.32in /  1026.6hPa Calm   7mph /  11.3km/h 90% 0.00in /  0mm 0 W/m2
23:20 34 °F /  1.1 °C 31.4 °F /  -0.3 °C 30.32in /  1026.6hPa SSE 1mph /  1.6km/h 6mph /  9.7km/h 90% 0.00in /  0mm 0 W/m2
23:30 34 °F /  1.1 °C 31.4 °F /  -0.3 °C 30.32in /  1026.6hPa South 3mph /  4.8km/h 7mph /  11.3km/h 90% 0.00in /  0mm 0 W/m2
23:40 34 °F /  1.1 °C 31.4 °F /  -0.3 °C 30.32in /  1026.6hPa SSW 2mph /  3.2km/h 5mph /  8km/h 90% 0.00in /  0mm 0 W/m2
23:50 34 °F /  1.1 °C 31.6 °F /  -0.2 °C 30.32in /  1026.6hPa SW 1mph /  1.6km/h 5mph /  8km/h 91% 0.00in /  0mm 0 W/m2
Knjazevac, Serbia
Compliments of Weather Underground - 2 mb